createdAt,value
2022-12-09T00:01:08.153Z,46.45
2022-12-09T00:03:43.676Z,47.67
2022-12-09T00:06:19.189Z,48.42
2022-12-09T00:08:53.613Z,42.15
2022-12-09T00:11:27.806Z,44.35
2022-12-09T00:14:01.515Z,41.60
2022-12-09T00:16:34.844Z,40.42
2022-12-09T00:19:09.440Z,41.17
2022-12-09T00:21:43.536Z,41.92
2022-12-09T00:24:17.090Z,43.00
2022-12-09T00:26:50.464Z,43.00
2022-12-09T00:29:23.666Z,42.00
2022-12-09T00:31:56.970Z,40.95
2022-12-09T00:34:32.125Z,46.40
2022-12-09T00:37:05.471Z,43.17
2022-12-09T00:39:39.102Z,40.70
2022-12-09T00:42:12.475Z,41.22
2022-12-09T00:44:45.825Z,39.63
2022-12-09T00:47:19.173Z,41.70
2022-12-09T00:49:54.072Z,36.42
2022-12-09T00:52:27.498Z,40.25
2022-12-09T00:55:00.960Z,37.70
2022-12-09T00:57:34.793Z,37.42
2022-12-09T01:00:10.071Z,35.70
2022-12-09T01:02:43.738Z,35.25
2022-12-09T01:05:18.609Z,34.25
2022-12-09T01:07:52.763Z,38.85
2022-12-09T01:10:26.922Z,33.33
2022-12-09T01:13:00.249Z,31.80
2022-12-09T01:15:34.250Z,26.35
2022-12-09T01:18:08.421Z,26.80
2022-12-09T01:20:43.334Z,25.33
2022-12-09T01:23:17.943Z,26.25
2022-12-09T01:25:51.692Z,26.52
2022-12-09T01:28:24.865Z,26.05
2022-12-09T01:30:58.387Z,26.42
2022-12-09T01:33:31.586Z,27.25
2022-12-09T01:36:09.272Z,27.40
2022-12-09T01:38:42.641Z,29.08
2022-12-09T01:41:17.174Z,31.38
2022-12-09T01:44:09.306Z,27.05
2022-12-09T01:46:42.880Z,29.38
2022-12-09T01:49:21.594Z,27.10
2022-12-09T01:52:05.951Z,27.05
2022-12-09T01:54:41.101Z,28.60
2022-12-09T01:57:14.599Z,27.65
2022-12-09T01:59:48.501Z,28.17
2022-12-09T02:02:23.688Z,28.48
2022-12-09T02:04:58.588Z,25.73
2022-12-09T02:07:35.532Z,29.48
2022-12-09T02:10:13.716Z,29.75
2022-12-09T02:13:05.830Z,29.33
2022-12-09T02:15:44.718Z,26.75
2022-12-09T02:18:25.764Z,30.05
2022-12-09T02:21:02.782Z,28.77
2022-12-09T02:23:41.598Z,29.13
2022-12-09T02:26:24.706Z,28.80
2022-12-09T02:29:23.055Z,25.60
2022-12-09T02:32:34.632Z,25.50
2022-12-09T02:35:14.296Z,26.50
2022-12-09T02:37:54.777Z,29.88
2022-12-09T02:40:32.516Z,29.35
2022-12-09T02:43:09.385Z,29.25
2022-12-09T02:45:46.074Z,27.77
2022-12-09T02:48:24.644Z,25.92
2022-12-09T02:51:01.711Z,23.40
2022-12-09T02:53:37.024Z,23.10
2022-12-09T02:56:12.373Z,23.35
2022-12-09T02:58:47.042Z,22.58
2022-12-09T03:01:33.764Z,22.13
2022-12-09T03:04:09.095Z,23.70
2022-12-09T03:06:49.211Z,24.00
2022-12-09T03:09:25.810Z,27.00
2022-12-09T03:12:03.884Z,25.38
2022-12-09T03:14:41.393Z,22.60
2022-12-09T03:17:20.743Z,20.27
2022-12-09T03:19:57.250Z,24.00
2022-12-09T03:22:36.219Z,22.15
2022-12-09T03:25:16.062Z,22.75
2022-12-09T03:27:53.554Z,23.92
2022-12-09T03:30:27.399Z,23.45
2022-12-09T03:33:02.125Z,23.52
2022-12-09T03:35:39.224Z,24.50
2022-12-09T03:38:18.449Z,22.52
2022-12-09T03:40:58.122Z,22.95
2022-12-09T03:43:36.550Z,21.02
2022-12-09T03:46:10.341Z,20.20
2022-12-09T03:48:44.272Z,18.27
2022-12-09T03:51:23.189Z,20.10
2022-12-09T03:54:02.642Z,21.95
2022-12-09T03:56:41.749Z,17.42
2022-12-09T03:59:16.311Z,15.98
2022-12-09T04:01:50.666Z,15.63
2022-12-09T04:04:24.359Z,12.07
2022-12-09T04:06:58.712Z,13.13
2022-12-09T04:09:33.629Z,15.35
2022-12-09T04:12:08.240Z,11.45
2022-12-09T04:14:41.943Z,13.50
2022-12-09T04:17:15.766Z,9.02
2022-12-09T04:19:49.890Z,9.93
2022-12-09T04:22:23.543Z,10.65
2022-12-09T04:24:58.384Z,8.93
2022-12-09T04:27:32.109Z,10.10
2022-12-09T04:30:07.320Z,11.38
2022-12-09T04:32:41.555Z,10.68
2022-12-09T04:35:15.062Z,10.27
2022-12-09T04:37:48.572Z,10.45
2022-12-09T04:40:24.648Z,13.60
2022-12-09T04:42:59.823Z,13.40
2022-12-09T04:45:33.248Z,10.52
2022-12-09T04:48:07.535Z,10.98
2022-12-09T04:50:41.888Z,9.68
2022-12-09T04:53:15.803Z,9.50
2022-12-09T04:55:50.636Z,9.52
2022-12-09T04:58:24.743Z,9.77
2022-12-09T05:00:59.003Z,9.60
2022-12-09T05:03:32.981Z,10.15
2022-12-09T05:06:08.177Z,10.90
2022-12-09T05:08:43.316Z,10.50
2022-12-09T05:11:19.699Z,11.32
2022-12-09T05:13:54.654Z,11.75
2022-12-09T05:16:28.750Z,11.70
2022-12-09T05:19:02.560Z,10.73
2022-12-09T05:21:36.320Z,11.50
2022-12-09T05:24:10.019Z,13.45
2022-12-09T05:26:45.132Z,14.88
2022-12-09T05:29:22.731Z,14.48
2022-12-09T05:31:57.353Z,14.80
2022-12-09T05:34:31.281Z,16.95
2022-12-09T05:37:05.392Z,18.17
2022-12-09T05:39:39.185Z,15.82
2022-12-09T05:42:14.386Z,21.17
2022-12-09T05:44:48.249Z,19.35
2022-12-09T05:47:22.025Z,19.13
2022-12-09T05:49:55.666Z,19.35
2022-12-09T05:52:29.154Z,38.63
2022-12-09T05:55:06.049Z,21.90
2022-12-09T05:57:41.017Z,25.20
2022-12-09T06:00:16.033Z,24.25
2022-12-09T06:02:50.313Z,25.73
2022-12-09T06:05:24.553Z,23.52
2022-12-09T06:08:02.354Z,24.88
2022-12-09T06:10:40.788Z,20.30
2022-12-09T06:13:16.470Z,23.02
2022-12-09T06:15:50.051Z,25.05
2022-12-09T06:18:24.544Z,19.98
2022-12-09T06:20:59.038Z,24.20
2022-12-09T06:23:32.779Z,30.25
2022-12-09T06:26:06.962Z,22.83
2022-12-09T06:28:42.307Z,25.33
2022-12-09T06:31:16.547Z,25.77
2022-12-09T06:33:56.063Z,24.67
2022-12-09T06:36:32.265Z,23.45
2022-12-09T06:39:10.598Z,22.50
2022-12-09T06:41:45.055Z,25.80
2022-12-09T06:44:23.748Z,26.88
2022-12-09T06:46:58.339Z,27.80
2022-12-09T06:49:32.277Z,25.77
2022-12-09T06:52:06.336Z,23.52
2022-12-09T06:54:40.167Z,22.88
2022-12-09T06:57:13.837Z,22.98
2022-12-09T06:59:48.956Z,25.40
2022-12-09T07:02:22.820Z,24.58
2022-12-09T07:04:57.711Z,22.15
2022-12-09T07:07:31.896Z,23.98
2022-12-09T07:10:06.771Z,25.20
2022-12-09T07:12:40.720Z,25.40
2022-12-09T07:15:16.440Z,26.77
2022-12-09T07:17:50.488Z,25.17
2022-12-09T07:20:24.559Z,29.35
2022-12-09T07:22:58.184Z,23.35
2022-12-09T07:25:31.941Z,20.80
2022-12-09T07:28:06.115Z,16.88
2022-12-09T07:30:41.440Z,21.05
2022-12-09T07:33:15.407Z,23.08
2022-12-09T07:35:49.007Z,19.30
2022-12-09T07:38:22.505Z,21.55
2022-12-09T07:40:56.055Z,21.70
2022-12-09T07:43:29.596Z,23.77
2022-12-09T07:46:09.157Z,26.92
2022-12-09T07:48:43.459Z,22.98
2022-12-09T07:51:17.201Z,23.88
2022-12-09T07:53:51.717Z,25.17
2022-12-09T07:56:26.166Z,48.03
2022-12-09T07:59:00.155Z,46.10
2022-12-09T08:01:35.669Z,32.47
2022-12-09T08:04:10.036Z,50.60
2022-12-09T08:06:44.015Z,43.45
2022-12-09T08:09:18.500Z,29.58
2022-12-09T08:11:52.434Z,26.05
2022-12-09T08:14:25.981Z,27.45
2022-12-09T08:17:01.230Z,26.67
2022-12-09T08:19:35.441Z,26.27
2022-12-09T08:22:09.393Z,23.13
2022-12-09T08:24:43.571Z,25.98
2022-12-09T08:27:17.117Z,26.38
2022-12-09T08:29:51.492Z,24.63
2022-12-09T08:32:26.577Z,32.08
2022-12-09T08:35:00.789Z,34.30
2022-12-09T08:37:34.562Z,22.33
2022-12-09T08:40:09.680Z,16.63
2022-12-09T08:42:43.999Z,19.38
2022-12-09T08:45:17.580Z,15.43
2022-12-09T08:47:53.242Z,16.33
2022-12-09T08:50:27.345Z,14.30
2022-12-09T08:53:01.701Z,13.32
2022-12-09T08:55:39.508Z,12.02
2022-12-09T08:58:13.499Z,11.77
2022-12-09T09:00:47.523Z,11.60
2022-12-09T09:03:22.704Z,10.35
2022-12-09T09:06:08.912Z,9.90
2022-12-09T09:08:44.219Z,10.45
2022-12-09T09:11:20.000Z,10.98
2022-12-09T09:13:54.584Z,9.73
2022-12-09T09:16:29.049Z,10.30
2022-12-09T09:19:06.084Z,13.15
2022-12-09T09:21:40.289Z,11.48
2022-12-09T09:24:17.423Z,12.55
2022-12-09T09:26:52.510Z,15.45
2022-12-09T09:29:26.312Z,11.48
2022-12-09T09:32:00.358Z,10.02
2022-12-09T09:34:35.428Z,11.80
2022-12-09T09:37:08.871Z,9.90
2022-12-09T09:39:42.669Z,10.23
2022-12-09T09:42:20.339Z,7.50
2022-12-09T09:44:55.734Z,8.23
2022-12-09T09:47:38.242Z,8.27
2022-12-09T09:50:27.520Z,12.65
2022-12-09T09:53:11.634Z,13.02
2022-12-09T09:55:49.827Z,14.40
2022-12-09T09:58:27.093Z,14.18
2022-12-09T10:01:06.697Z,12.27
2022-12-09T10:04:00.268Z,11.93
2022-12-09T10:06:45.611Z,11.38
2022-12-09T10:09:24.041Z,10.15
2022-12-09T10:12:02.622Z,9.43
2022-12-09T10:14:46.030Z,10.27
2022-12-09T10:17:28.120Z,12.88
2022-12-09T10:20:07.690Z,11.57
2022-12-09T10:22:49.761Z,12.57
2022-12-09T10:25:26.574Z,14.10
2022-12-09T10:28:18.847Z,13.38
2022-12-09T10:30:54.474Z,13.13
2022-12-09T10:33:30.747Z,12.25
2022-12-09T10:36:05.742Z,11.32
2022-12-09T10:38:42.630Z,10.70
2022-12-09T10:41:39.678Z,11.27
2022-12-09T10:44:21.157Z,10.02
2022-12-09T10:46:59.900Z,12.40
2022-12-09T10:49:35.882Z,13.00
2022-12-09T10:52:10.040Z,11.02
2022-12-09T10:54:46.990Z,12.38
2022-12-09T10:57:26.719Z,11.82
2022-12-09T11:00:03.944Z,12.07
2022-12-09T11:02:38.230Z,12.30
2022-12-09T11:05:27.753Z,12.23
2022-12-09T11:08:01.749Z,13.63
2022-12-09T11:10:38.305Z,13.23
2022-12-09T11:13:18.202Z,13.85
2022-12-09T11:15:54.474Z,12.77
2022-12-09T11:18:31.199Z,12.93
2022-12-09T11:21:08.156Z,11.48
2022-12-09T11:24:00.790Z,13.05
2022-12-09T11:26:39.522Z,14.05
2022-12-09T11:29:16.468Z,13.52
2022-12-09T11:31:49.982Z,10.70
2022-12-09T11:34:27.409Z,12.50
2022-12-09T11:37:02.747Z,9.80
2022-12-09T11:39:37.476Z,9.95
2022-12-09T11:42:19.414Z,11.18
2022-12-09T11:44:57.739Z,12.00
2022-12-09T11:47:57.420Z,12.25
2022-12-09T11:50:31.636Z,13.40
2022-12-09T11:53:18.382Z,12.68
2022-12-09T11:55:55.273Z,11.90
2022-12-09T11:58:37.476Z,10.10
2022-12-09T12:01:14.335Z,11.23
2022-12-09T12:03:56.824Z,10.77
2022-12-09T12:06:36.465Z,11.85
2022-12-09T12:09:16.620Z,10.70
2022-12-09T12:12:00.709Z,12.02
2022-12-09T12:14:39.140Z,8.43
2022-12-09T12:17:19.843Z,8.35
2022-12-09T12:19:56.362Z,7.15
2022-12-09T12:23:04.950Z,7.65
2022-12-09T12:25:50.376Z,8.05
2022-12-09T12:28:46.077Z,9.15
2022-12-09T13:45:23.156Z,20.05
2022-12-09T13:47:57.931Z,27.33
2022-12-09T13:50:38.561Z,18.65
2022-12-09T13:53:27.006Z,19.75
2022-12-09T13:56:02.621Z,19.17
2022-12-09T13:59:01.925Z,19.60
2022-12-09T14:01:43.232Z,19.98
2022-12-09T14:04:20.277Z,22.42
2022-12-09T14:06:59.081Z,15.95
2022-12-09T14:09:38.229Z,18.40
2022-12-09T14:12:13.453Z,19.52
2022-12-09T14:14:51.797Z,21.88
2022-12-09T14:18:01.027Z,16.60
2022-12-09T14:20:38.099Z,20.75
2022-12-09T14:23:17.896Z,17.17
2022-12-09T14:26:05.895Z,15.10
2022-12-09T14:28:58.816Z,13.55
2022-12-09T14:34:34.757Z,14.00
2022-12-09T14:37:32.483Z,14.43
2022-12-09T14:40:39.629Z,14.00
2022-12-09T14:43:39.351Z,11.52
2022-12-09T14:46:30.067Z,11.38
2022-12-09T14:49:05.882Z,13.07
2022-12-09T14:51:45.784Z,11.48
2022-12-09T14:54:36.163Z,15.23
2022-12-09T14:57:21.514Z,16.08
2022-12-09T14:59:56.884Z,15.52
2022-12-09T15:02:32.442Z,16.42
2022-12-09T15:05:18.134Z,15.75
2022-12-09T15:07:53.130Z,14.00
2022-12-09T15:10:34.295Z,15.27
2022-12-09T15:13:10.195Z,12.55
2022-12-09T15:15:43.837Z,15.85
2022-12-09T15:18:21.070Z,14.40
2022-12-09T15:20:56.432Z,14.95
2022-12-09T15:23:34.595Z,15.40
2022-12-09T15:26:19.465Z,14.05
2022-12-09T15:28:55.392Z,13.75
2022-12-09T15:31:30.686Z,12.07
2022-12-09T15:34:21.686Z,15.45
2022-12-09T15:37:01.963Z,15.20
2022-12-09T15:39:41.696Z,15.70
2022-12-09T15:42:22.028Z,17.48
2022-12-09T15:45:02.648Z,21.00
2022-12-09T15:47:39.976Z,22.92
2022-12-09T15:50:18.703Z,21.27
2022-12-09T15:52:53.716Z,22.15
2022-12-09T15:55:32.352Z,21.42
2022-12-09T15:58:09.160Z,24.75
2022-12-09T16:00:47.196Z,20.65
2022-12-09T16:03:23.518Z,22.95
2022-12-09T16:05:59.475Z,24.65
2022-12-09T16:08:35.102Z,22.50
2022-12-09T16:11:10.636Z,25.38
2022-12-09T16:13:59.185Z,24.77
2022-12-09T16:16:41.844Z,25.60
2022-12-09T16:19:45.441Z,24.38
2022-12-09T16:22:23.018Z,23.60
2022-12-09T16:25:14.528Z,21.23
2022-12-09T16:27:56.674Z,24.07
2022-12-09T16:30:34.546Z,24.23
2022-12-09T16:33:18.268Z,26.38
2022-12-09T16:35:59.689Z,27.35
2022-12-09T16:38:34.833Z,26.70
2022-12-09T16:41:11.629Z,24.48
2022-12-09T16:43:58.131Z,27.35
2022-12-09T16:46:41.147Z,22.67
2022-12-09T16:49:14.632Z,27.45
2022-12-09T16:51:48.009Z,30.60
2022-12-09T16:54:21.430Z,28.25
2022-12-09T16:56:57.647Z,28.10
2022-12-09T16:59:37.837Z,30.30
2022-12-09T17:02:22.215Z,28.92
2022-12-09T17:04:55.706Z,31.80
2022-12-09T17:07:28.993Z,32.58
2022-12-09T17:10:04.640Z,35.13
2022-12-09T17:12:38.057Z,32.67
2022-12-09T17:15:15.499Z,34.08
2022-12-09T17:17:49.508Z,38.90
2022-12-09T17:20:22.867Z,34.13
2022-12-09T17:22:56.213Z,32.53
2022-12-09T17:25:32.984Z,29.73
2022-12-09T17:28:08.730Z,37.15
2022-12-09T17:30:43.378Z,36.75
2022-12-09T17:33:16.681Z,38.47
2022-12-09T17:35:49.929Z,35.03
2022-12-09T17:38:23.774Z,31.25
2022-12-09T17:40:57.187Z,28.50
2022-12-09T17:43:30.487Z,25.30
2022-12-09T17:46:06.767Z,23.65
2022-12-09T17:48:41.790Z,21.33
2022-12-09T17:51:17.947Z,28.02
2022-12-09T17:53:51.358Z,29.13
2022-12-09T17:56:25.495Z,32.70
2022-12-09T17:59:02.864Z,49.17
2022-12-09T18:01:40.473Z,60.00
2022-12-09T18:04:15.439Z,56.58
2022-12-09T18:06:48.774Z,47.53
2022-12-09T18:09:22.734Z,43.58
2022-12-09T18:11:56.191Z,38.05
2022-12-09T18:14:29.686Z,38.30
2022-12-09T18:17:04.534Z,42.28
2022-12-09T18:19:38.018Z,38.05
2022-12-09T18:22:11.381Z,88.68
2022-12-09T18:24:44.659Z,70.28
2022-12-09T18:27:18.024Z,49.70
2022-12-09T18:29:51.400Z,66.63
2022-12-09T18:32:28.220Z,50.22
2022-12-09T18:35:05.051Z,42.28
2022-12-09T18:37:38.423Z,46.42
2022-12-09T18:40:13.628Z,42.53
2022-12-09T18:42:46.951Z,34.67
2022-12-09T18:45:20.888Z,31.70
2022-12-09T18:47:55.628Z,43.97
2022-12-09T18:50:29.198Z,47.17
2022-12-09T18:53:02.517Z,36.25
2022-12-09T18:55:42.048Z,37.95
2022-12-09T18:58:15.825Z,32.53
2022-12-09T19:00:49.239Z,37.83
2022-12-09T19:03:24.022Z,41.90
2022-12-09T19:05:57.344Z,49.03
2022-12-09T19:08:30.658Z,43.85
2022-12-09T19:11:03.976Z,45.88
2022-12-09T19:13:37.973Z,38.95
2022-12-09T19:16:11.403Z,42.13
2022-12-09T19:18:46.807Z,40.00
2022-12-09T19:21:22.017Z,38.53
2022-12-09T19:23:56.025Z,46.22
2022-12-09T19:26:32.371Z,39.30
2022-12-09T19:29:08.227Z,41.90
2022-12-09T19:31:43.598Z,51.97
2022-12-09T19:34:22.019Z,41.53
2022-12-09T19:36:57.293Z,45.30
2022-12-09T19:39:34.176Z,41.30
2022-12-09T19:42:07.643Z,44.20
2022-12-09T19:45:00.916Z,42.42
2022-12-09T19:47:34.756Z,48.03
2022-12-09T19:50:10.629Z,46.33
2022-12-09T19:52:44.264Z,49.28
2022-12-09T19:55:18.154Z,42.63
2022-12-09T19:57:51.651Z,44.45
2022-12-09T20:00:25.036Z,41.60
2022-12-09T20:02:59.977Z,41.38
2022-12-09T20:05:35.052Z,45.58
2022-12-09T20:08:08.449Z,49.03
2022-12-09T20:10:45.018Z,42.05
2022-12-09T20:13:18.763Z,40.45
2022-12-09T20:15:52.297Z,47.10
2022-12-09T20:18:25.737Z,49.83
2022-12-09T20:21:03.890Z,46.58
2022-12-09T20:23:38.720Z,41.90
2022-12-09T20:26:13.915Z,62.05
2022-12-09T20:28:49.541Z,71.82
2022-12-09T20:31:25.011Z,76.78
2022-12-09T20:34:00.333Z,70.80
2022-12-09T20:36:37.431Z,68.00
2022-12-09T20:39:15.269Z,49.60
2022-12-09T20:41:49.383Z,50.05
2022-12-09T20:44:24.281Z,55.80
2022-12-09T20:46:57.815Z,49.83
2022-12-09T20:49:31.332Z,50.08
2022-12-09T20:52:06.582Z,55.22
2022-12-09T20:54:40.073Z,52.63
2022-12-09T20:57:13.524Z,56.25
2022-12-09T20:59:46.997Z,59.72
2022-12-09T21:02:20.723Z,69.18
2022-12-09T21:04:54.220Z,57.15
2022-12-09T21:07:28.936Z,56.75
2022-12-09T21:10:02.354Z,51.00
2022-12-09T21:12:35.966Z,63.95
2022-12-09T21:15:11.041Z,60.33
2022-12-09T21:17:46.706Z,72.50
2022-12-09T21:20:20.137Z,58.30
2022-12-09T21:23:10.794Z,54.90
2022-12-09T21:25:48.573Z,53.80
2022-12-09T21:28:22.255Z,56.70
2022-12-09T21:30:55.716Z,53.15
2022-12-09T21:33:29.024Z,63.65
2022-12-09T21:36:02.782Z,60.13
2022-12-09T21:38:38.699Z,54.95
2022-12-09T21:41:16.265Z,52.45
2022-12-09T21:43:49.952Z,50.47
2022-12-09T21:46:25.937Z,58.67
2022-12-09T21:49:03.885Z,61.60
2022-12-09T21:51:37.840Z,54.25
2022-12-09T21:54:12.820Z,50.83
2022-12-09T21:56:46.226Z,59.38
2022-12-09T21:59:19.639Z,57.45
2022-12-09T22:01:53.019Z,58.60
2022-12-09T22:04:26.395Z,60.38
2022-12-09T22:06:59.818Z,61.60
2022-12-09T22:09:34.625Z,57.92
2022-12-09T22:12:08.385Z,56.00
2022-12-09T22:14:42.321Z,63.42
2022-12-09T22:17:15.692Z,56.33
2022-12-09T22:20:00.518Z,64.07
2022-12-09T22:22:42.461Z,67.07
2022-12-09T22:25:17.361Z,48.13
2022-12-09T22:27:50.753Z,54.78
2022-12-09T22:30:24.178Z,54.78
2022-12-09T22:32:57.651Z,61.58
2022-12-09T22:35:31.071Z,59.05
2022-12-09T22:38:10.982Z,61.35
2022-12-09T22:40:48.947Z,62.47
2022-12-09T22:43:22.261Z,60.47
2022-12-09T22:45:55.582Z,81.30
2022-12-09T22:48:29.063Z,66.53
2022-12-09T22:51:04.732Z,78.60
2022-12-09T22:53:38.398Z,58.00
2022-12-09T22:56:13.703Z,54.85
2022-12-09T22:58:47.580Z,58.95
2022-12-09T23:01:22.452Z,55.58
2022-12-09T23:03:56.813Z,68.53
2022-12-09T23:06:30.935Z,67.82
2022-12-09T23:09:04.784Z,56.08
2022-12-09T23:11:39.466Z,51.03
2022-12-09T23:14:13.254Z,58.80
2022-12-09T23:16:46.667Z,54.28
2022-12-09T23:19:20.274Z,54.40
2022-12-09T23:21:53.651Z,60.22
2022-12-09T23:24:27.038Z,61.95
2022-12-09T23:27:01.839Z,62.58
2022-12-09T23:29:35.226Z,57.65
2022-12-09T23:32:08.567Z,52.88
2022-12-09T23:34:42.380Z,48.65
2022-12-09T23:37:15.744Z,51.38
2022-12-09T23:39:49.996Z,52.45
2022-12-09T23:42:24.801Z,54.20
2022-12-09T23:44:58.694Z,51.55
2022-12-09T23:47:32.143Z,52.75
2022-12-09T23:50:06.341Z,49.50
2022-12-09T23:52:39.874Z,45.83
2022-12-09T23:55:13.586Z,44.45
2022-12-09T23:57:48.427Z,48.63
